Time;durP1;ratioP1;P1;durP2;ratioP2;P2;SDS_P1;SDS_P2;PMS_P1;PMS_P2;Temp;Humidity;BMP_temperature;BMP_pressure;BME280_temperature;BME280_humidity;BME280_pressure;Samples;Min_cycle;Max_cycle;Signal;HPM_P1;HPM_P2
2024/04/15 00:00:42;;;;;;;4.95;2.20;;;;;;;;;;2187041;26;20002;-73
2024/04/15 00:01:43;;;;;;;6.25;3.25;;;;;;;;;;2185000;26;20006;-73
2024/04/15 00:02:44;;;;;;;9.15;2.63;;;;;;;;;;2181934;27;20351;-73
2024/04/15 00:03:48;;;;;;;7.03;2.53;;;;;;;;;;2187572;27;20006;-73
2024/04/15 00:04:49;;;;;;;4.32;1.95;;;;;;;;;;2187891;27;20358;-73
2024/04/15 00:05:50;;;;;;;5.88;2.40;;;;;;;;;;2188242;27;20005;-73
2024/04/15 00:06:54;;;;;;;6.22;3.15;;;;;;;;;;2188122;27;20072;-73
2024/04/15 00:07:55;;;;;;;10.98;2.58;;;;;;;;;;2184011;27;20001;-73
2024/04/15 00:08:56;;;;;;;5.10;2.33;;;;;;;;;;2185622;27;20476;-74
2024/04/15 00:10:00;;;;;;;6.18;2.13;;;;;;;;;;2184983;26;20001;-75
2024/04/15 00:11:02;;;;;;;5.65;2.40;;;;;;;;;;2182767;27;20003;-74
2024/04/15 00:12:04;;;;;;;5.28;2.40;;;;;;;;;;2181902;26;20626;-75
2024/04/15 00:13:05;;;;;;;9.15;2.50;;;;;;;;;;2188536;26;20013;-74
2024/04/15 00:14:08;;;;;;;4.88;2.33;;;;;;;;;;2187852;27;20013;-75
2024/04/15 00:15:13;;;;;;;5.88;2.28;;;;;;;;;;2185218;27;20006;-76
2024/04/15 00:16:14;;;;;;;5.53;2.50;;;;;;;;;;2186060;26;20462;-75
2024/04/15 00:17:18;;;;;;;6.82;2.20;;;;;;;;;;2186749;27;20007;-73
2024/04/15 00:18:19;;;;;;;4.05;1.92;;;;;;;;;;2184078;27;20002;-73
2024/04/15 00:19:20;;;;;;;9.15;2.40;;;;;;;;;;2186130;27;20018;-73
2024/04/15 00:20:21;;;;;;;5.60;2.42;;;;;;;;;;2183073;27;20469;-73
2024/04/15 00:21:25;;;;;;;4.45;2.28;;;;;;;;;;2184793;27;20002;-73
2024/04/15 00:22:26;;;;;;;4.35;2.30;;;;;;;;;;2185803;26;20006;-73
2024/04/15 00:23:28;;;;;;;6.68;2.00;;;;;;;;;;2182775;26;20002;-73
2024/04/15 00:24:31;;;;;;;6.93;2.90;;;;;;;;;;2190585;26;20049;-73
2024/04/15 00:25:32;;;;;;;5.53;2.40;;;;;;;;;;2188699;26;20002;-70
2024/04/15 00:26:33;;;;;;;7.78;2.10;;;;;;;;;;2186857;27;20390;-72
2024/04/15 00:27:34;;;;;;;5.68;2.60;;;;;;;;;;2183351;26;20430;-71
2024/04/15 00:28:38;;;;;;;7.40;2.70;;;;;;;;;;2183591;27;20365;-73
2024/04/15 00:29:39;;;;;;;6.72;2.85;;;;;;;;;;2186656;27;20016;-71
2024/04/15 00:30:46;;;;;;;4.88;2.20;;;;;;;;;;2184897;26;20017;-73
2024/04/15 00:31:47;;;;;;;6.07;2.13;;;;;;;;;;2185219;26;20124;-73
2024/04/15 00:32:51;;;;;;;4.82;2.30;;;;;;;;;;2183695;27;20014;-74
2024/04/15 00:33:54;;;;;;;6.28;2.42;;;;;;;;;;2186106;27;20553;-74
2024/04/15 00:34:55;;;;;;;6.05;2.17;;;;;;;;;;2185300;27;20348;-73
2024/04/15 00:35:56;;;;;;;8.45;2.38;;;;;;;;;;2186246;26;20802;-73
2024/04/15 00:37:00;;;;;;;8.60;2.90;;;;;;;;;;2184172;26;20020;-73
2024/04/15 00:38:01;;;;;;;4.80;2.33;;;;;;;;;;2187155;27;20881;-73
2024/04/15 00:39:02;;;;;;;5.07;2.13;;;;;;;;;;2183737;26;20010;-73
2024/04/15 00:40:04;;;;;;;5.50;2.38;;;;;;;;;;2186444;26;20006;-73
2024/04/15 00:41:08;;;;;;;8.77;2.40;;;;;;;;;;2183119;27;20568;-73
2024/04/15 00:42:09;;;;;;;4.03;2.00;;;;;;;;;;2184695;27;20084;-73
2024/04/15 00:43:10;;;;;;;6.70;2.65;;;;;;;;;;2182007;26;20005;-73
2024/04/15 00:44:14;;;;;;;9.70;3.00;;;;;;;;;;2185945;26;20375;-73
2024/04/15 00:45:28;;;;;;;5.55;2.42;;;;;;;;;;2188606;27;20017;-73
2024/04/15 00:46:32;;;;;;;5.45;2.53;;;;;;;;;;2186695;26;20559;-71
2024/04/15 00:47:33;;;;;;;6.43;2.58;;;;;;;;;;2183412;27;20024;-71
2024/04/15 00:48:37;;;;;;;6.30;2.45;;;;;;;;;;2186635;27;20020;-71
2024/04/15 00:49:39;;;;;;;3.88;2.40;;;;;;;;;;2184973;27;20786;-71
2024/04/15 00:50:41;;;;;;;5.18;2.38;;;;;;;;;;2182556;27;20110;-71
2024/04/15 00:51:43;;;;;;;6.07;2.50;;;;;;;;;;2188730;26;20010;-71
2024/04/15 00:52:46;;;;;;;6.68;2.88;;;;;;;;;;2182868;26;20025;-71
2024/04/15 00:53:48;;;;;;;5.38;2.30;;;;;;;;;;2188037;26;20041;-73
2024/04/15 00:54:50;;;;;;;6.07;2.70;;;;;;;;;;2188152;26;20022;-73
2024/04/15 00:55:56;;;;;;;4.97;2.10;;;;;;;;;;2183809;26;20021;-74
2024/04/15 00:56:57;;;;;;;5.55;2.20;;;;;;;;;;2187361;27;20065;-73
2024/04/15 00:57:59;;;;;;;4.47;2.50;;;;;;;;;;2181902;27;20451;-73
2024/04/15 00:59:00;;;;;;;4.60;2.45;;;;;;;;;;2186099;26;20454;-73
2024/04/15 01:00:04;;;;;;;13.20;2.97;;;;;;;;;;2185547;27;20417;-71
2024/04/15 01:01:05;;;;;;;3.53;2.33;;;;;;;;;;2185189;26;20342;-72
2024/04/15 01:02:09;;;;;;;5.57;2.40;;;;;;;;;;2188980;27;20350;-74
2024/04/15 01:03:10;;;;;;;4.75;2.13;;;;;;;;;;2184488;27;20013;-74
2024/04/15 01:04:14;;;;;;;4.07;2.00;;;;;;;;;;2182841;27;19999;-73
2024/04/15 01:05:15;;;;;;;4.55;2.15;;;;;;;;;;2185925;27;20001;-73
2024/04/15 01:06:17;;;;;;;6.90;2.40;;;;;;;;;;2183317;27;20340;-73
2024/04/15 01:07:18;;;;;;;7.22;3.00;;;;;;;;;;2185182;27;20347;-73
2024/04/15 01:08:22;;;;;;;9.02;2.38;;;;;;;;;;2185498;26;20009;-72
2024/04/15 01:09:23;;;;;;;7.50;2.47;;;;;;;;;;2184286;27;20170;-71
2024/04/15 01:10:24;;;;;;;4.95;2.15;;;;;;;;;;2185002;26;20429;-71
2024/04/15 01:11:25;;;;;;;4.20;2.70;;;;;;;;;;2183800;26;20002;-73
2024/04/15 01:12:29;;;;;;;5.25;2.65;;;;;;;;;;2184236;26;20079;-71
2024/04/15 01:13:30;;;;;;;8.02;2.40;;;;;;;;;;2183734;27;20009;-71
2024/04/15 01:14:31;;;;;;;7.15;2.28;;;;;;;;;;2187319;27;20006;-74
2024/04/15 01:15:32;;;;;;;5.43;2.38;;;;;;;;;;2185924;26;20013;-73
2024/04/15 01:16:39;;;;;;;4.82;2.35;;;;;;;;;;2185134;26;20005;-71
2024/04/15 01:17:43;;;;;;;6.57;2.50;;;;;;;;;;2184960;27;20081;-72
2024/04/15 01:18:44;;;;;;;7.03;2.67;;;;;;;;;;2184801;26;20461;-72
2024/04/15 01:19:45;;;;;;;7.05;2.70;;;;;;;;;;2186033;26;20011;-72
2024/04/15 01:20:49;;;;;;;12.82;2.70;;;;;;;;;;2183866;27;20017;-73
2024/04/15 01:21:50;;;;;;;6.38;2.70;;;;;;;;;;2189917;27;19998;-72
2024/04/15 01:22:55;;;;;;;6.28;2.35;;;;;;;;;;2185319;26;20030;-72
2024/04/15 01:23:59;;;;;;;5.55;2.28;;;;;;;;;;2188931;27;20025;-71
2024/04/15 01:25:03;;;;;;;8.63;3.00;;;;;;;;;;2186294;27;20319;-72
2024/04/15 01:26:04;;;;;;;6.38;2.00;;;;;;;;;;2185741;27;20038;-72
2024/04/15 01:27:05;;;;;;;7.25;2.50;;;;;;;;;;2184541;27;20133;-73
2024/04/15 01:28:06;;;;;;;5.95;2.50;;;;;;;;;;2183558;26;20013;-72
2024/04/15 01:29:10;;;;;;;3.97;2.25;;;;;;;;;;2185062;27;20354;-72
2024/04/15 01:30:11;;;;;;;4.18;2.50;;;;;;;;;;2185913;27;20030;-71
2024/04/15 01:31:12;;;;;;;7.00;2.65;;;;;;;;;;2187721;26;20366;-72
2024/04/15 01:32:13;;;;;;;5.78;2.42;;;;;;;;;;2186470;26;20009;-72
2024/04/15 01:33:17;;;;;;;3.80;2.03;;;;;;;;;;2186638;27;20485;-72
2024/04/15 01:34:18;;;;;;;7.93;3.00;;;;;;;;;;2185606;26;20017;-73
2024/04/15 01:35:20;;;;;;;4.75;2.72;;;;;;;;;;2186373;27;20010;-73
2024/04/15 01:36:23;;;;;;;4.50;2.60;;;;;;;;;;2185537;27;20002;-72
2024/04/15 01:37:24;;;;;;;7.57;2.65;;;;;;;;;;2185430;27;20002;-72
2024/04/15 01:38:25;;;;;;;4.53;2.22;;;;;;;;;;2183149;27;20001;-71
2024/04/15 01:39:32;;;;;;;7.93;2.30;;;;;;;;;;2185861;27;20002;-72
2024/04/15 01:40:33;;;;;;;3.65;2.28;;;;;;;;;;2183596;26;20573;-72
2024/04/15 01:41:34;;;;;;;8.00;2.20;;;;;;;;;;2184579;27;20025;-72
2024/04/15 01:42:35;;;;;;;7.72;2.47;;;;;;;;;;2186589;26;20005;-72
2024/04/15 01:43:39;;;;;;;4.93;2.38;;;;;;;;;;2188156;27;20024;-72
2024/04/15 01:44:40;;;;;;;5.50;2.20;;;;;;;;;;2182790;27;20002;-72
2024/04/15 01:45:41;;;;;;;3.67;1.85;;;;;;;;;;2185317;26;20017;-72
2024/04/15 01:46:42;;;;;;;5.53;2.35;;;;;;;;;;2185806;26;20029;-72
2024/04/15 01:47:46;;;;;;;6.57;2.30;;;;;;;;;;2187255;26;20117;-72
2024/04/15 01:48:48;;;;;;;6.18;2.70;;;;;;;;;;2188868;26;20002;-73
2024/04/15 01:49:49;;;;;;;6.00;2.50;;;;;;;;;;2183734;27;20126;-72
2024/04/15 01:50:50;;;;;;;6.88;2.25;;;;;;;;;;2182612;26;20030;-72
2024/04/15 01:51:53;;;;;;;5.25;2.10;;;;;;;;;;2186763;27;20866;-71
2024/04/15 01:52:55;;;;;;;5.18;2.35;;;;;;;;;;2182392;26;20013;-71
2024/04/15 01:53:56;;;;;;;4.68;2.42;;;;;;;;;;2186277;27;20021;-72
2024/04/15 01:55:00;;;;;;;4.38;2.10;;;;;;;;;;2186059;26;20002;-72
2024/04/15 01:56:05;;;;;;;5.22;2.20;;;;;;;;;;2185039;27;20801;-72
2024/04/15 01:57:06;;;;;;;8.25;2.45;;;;;;;;;;2184175;27;20358;-71
2024/04/15 01:58:07;;;;;;;;;;;;;;;;;;2184510;27;20074;-72
2024/04/15 01:59:08;;;;;;;6.10;2.40;;;;;;;;;;2184797;26;19945;-72
2024/04/15 02:00:10;;;;;;;5.32;2.70;;;;;;;;;;2181404;27;20002;-72
2024/04/15 02:01:14;;;;;;;6.38;2.38;;;;;;;;;;2183835;26;20002;-72
2024/04/15 02:02:15;;;;;;;6.28;2.28;;;;;;;;;;2184046;27;20754;-72
2024/04/15 02:03:16;;;;;;;6.50;2.42;;;;;;;;;;2186762;26;20006;-72
2024/04/15 02:04:17;;;;;;;6.80;2.45;;;;;;;;;;2184359;26;20016;-72
2024/04/15 02:05:21;;;;;;;5.60;2.00;;;;;;;;;;2183815;26;20108;-71
2024/04/15 02:06:22;;;;;;;7.05;2.70;;;;;;;;;;2183604;27;20002;-72
2024/04/15 02:07:23;;;;;;;6.22;2.30;;;;;;;;;;2185240;26;20463;-73
2024/04/15 02:08:24;;;;;;;4.38;1.80;;;;;;;;;;2185171;27;20010;-72
2024/04/15 02:09:28;;;;;;;5.90;2.30;;;;;;;;;;2182990;27;20002;-72
2024/04/15 02:10:32;;;;;;;5.13;2.08;;;;;;;;;;2184832;26;20002;-72
2024/04/15 02:11:33;;;;;;;7.00;2.28;;;;;;;;;;2185409;27;20002;-71
2024/04/15 02:12:34;;;;;;;5.03;1.80;;;;;;;;;;2183383;26;20010;-72
2024/04/15 02:13:38;;;;;;;9.18;2.25;;;;;;;;;;2186214;26;20022;-72
2024/04/15 02:14:39;;;;;;;9.43;2.28;;;;;;;;;;2186589;27;20089;-72
2024/04/15 02:15:40;;;;;;;4.13;2.08;;;;;;;;;;2182190;27;20813;-71
2024/04/15 02:16:42;;;;;;;5.45;2.13;;;;;;;;;;2182628;26;20002;-72
2024/04/15 02:17:45;;;;;;;4.35;2.33;;;;;;;;;;2185937;26;20716;-72
2024/04/15 02:18:46;;;;;;;6.20;2.10;;;;;;;;;;2190993;26;20426;-72
2024/04/15 02:19:47;;;;;;;7.75;2.90;;;;;;;;;;2187859;27;20460;-72
2024/04/15 02:20:48;;;;;;;6.65;2.50;;;;;;;;;;2186342;26;20014;-71
2024/04/15 02:21:53;;;;;;;5.78;2.17;;;;;;;;;;2186464;27;20304;-73
2024/04/15 02:22:55;;;;;;;4.10;2.20;;;;;;;;;;2189736;26;20492;-73
2024/04/15 02:23:56;;;;;;;3.45;2.10;;;;;;;;;;2187687;26;20024;-72
2024/04/15 02:24:57;;;;;;;3.13;1.80;;;;;;;;;;2187545;26;20350;-72
2024/04/15 02:26:04;;;;;;;4.95;2.08;;;;;;;;;;2188609;27;20016;-72
2024/04/15 02:27:05;;;;;;;6.05;2.40;;;;;;;;;;2184184;27;20561;-72
2024/04/15 02:28:06;;;;;;;8.60;2.35;;;;;;;;;;2187858;26;20010;-72
2024/04/15 02:29:07;;;;;;;5.95;2.30;;;;;;;;;;2185058;27;20023;-72
2024/04/15 02:30:11;;;;;;;6.47;2.60;;;;;;;;;;2183238;27;20017;-73
2024/04/15 02:31:12;;;;;;;4.13;2.03;;;;;;;;;;2186158;26;20014;-71
2024/04/15 02:32:13;;;;;;;4.90;2.10;;;;;;;;;;2185003;27;20014;-71
2024/04/15 02:33:15;;;;;;;5.70;2.65;;;;;;;;;;2183610;27;20022;-72
2024/04/15 02:34:19;;;;;;;4.88;2.50;;;;;;;;;;2186041;26;20006;-71
2024/04/15 02:35:20;;;;;;;4.72;2.00;;;;;;;;;;2187616;27;20008;-72
2024/04/15 02:36:21;;;;;;;8.27;2.60;;;;;;;;;;2186318;26;20010;-72
2024/04/15 02:37:23;;;;;;;5.68;2.72;;;;;;;;;;2184607;26;20006;-72
2024/04/15 02:38:26;;;;;;;6.43;2.63;;;;;;;;;;2188196;27;20024;-72
2024/04/15 02:39:27;;;;;;;4.38;2.17;;;;;;;;;;2187899;27;20001;-71
2024/04/15 02:40:29;;;;;;;9.60;2.50;;;;;;;;;;2185573;27;20029;-72
2024/04/15 02:41:32;;;;;;;8.63;2.22;;;;;;;;;;2184029;27;20080;-71
2024/04/15 02:42:36;;;;;;;8.18;2.10;;;;;;;;;;2184216;27;20075;-71
2024/04/15 02:43:37;;;;;;;5.10;2.25;;;;;;;;;;2182699;26;19999;-72
2024/04/15 02:44:38;;;;;;;7.43;2.30;;;;;;;;;;2184930;27;20414;-72
2024/04/15 02:45:41;;;;;;;4.85;2.03;;;;;;;;;;2182558;27;20335;-72
2024/04/15 02:46:45;;;;;;;3.35;2.05;;;;;;;;;;2186590;26;20485;-72
2024/04/15 02:47:46;;;;;;;6.70;2.63;;;;;;;;;;2184732;27;19998;-71
2024/04/15 02:48:47;;;;;;;5.53;2.25;;;;;;;;;;2188089;27;20024;-71
2024/04/15 02:49:48;;;;;;;5.78;2.10;;;;;;;;;;2183594;27;20007;-72
2024/04/15 02:50:52;;;;;;;4.25;2.50;;;;;;;;;;2187507;26;19998;-72
2024/04/15 02:51:53;;;;;;;6.32;2.10;;;;;;;;;;2189684;26;20001;-71
2024/04/15 02:52:53;;;;;;;;;;;;;;;;;;2187080;26;20002;-71
2024/04/15 02:53:54;;;;;;;12.18;2.75;;;;;;;;;;2187981;26;20608;-71
2024/04/15 02:54:58;;;;;;;7.25;2.30;;;;;;;;;;2184992;26;20000;-71
2024/04/15 02:55:59;;;;;;;7.28;2.22;;;;;;;;;;2183361;27;20002;-71
2024/04/15 02:57:03;;;;;;;6.35;2.22;;;;;;;;;;2186507;27;20034;-72
2024/04/15 02:58:04;;;;;;;5.65;2.50;;;;;;;;;;2185437;26;20014;-72
2024/04/15 02:59:08;;;;;;;5.90;2.22;;;;;;;;;;2185200;26;20002;-71
2024/04/15 03:00:10;;;;;;;5.70;2.45;;;;;;;;;;2186540;27;19997;-72
2024/04/15 03:01:11;;;;;;;6.15;2.45;;;;;;;;;;2188985;26;20020;-72
2024/04/15 03:02:15;;;;;;;8.13;3.08;;;;;;;;;;2187122;27;20021;-72
2024/04/15 03:03:16;;;;;;;3.13;2.17;;;;;;;;;;2187356;26;20062;-72
2024/04/15 03:04:17;;;;;;;5.03;2.42;;;;;;;;;;2183519;26;20006;-72
2024/04/15 03:05:20;;;;;;;6.80;2.30;;;;;;;;;;2185384;27;20025;-72
2024/04/15 03:06:23;;;;;;;8.02;2.30;;;;;;;;;;2188451;27;20359;-72
2024/04/15 03:07:25;;;;;;;5.05;2.25;;;;;;;;;;2187359;26;20002;-73
2024/04/15 03:08:26;;;;;;;3.22;2.00;;;;;;;;;;2186828;26;20169;-73
2024/04/15 03:09:27;;;;;;;8.82;2.70;;;;;;;;;;2187548;26;20002;-72
2024/04/15 03:10:30;;;;;;;5.35;1.95;;;;;;;;;;2185259;26;20005;-73
2024/04/15 03:11:31;;;;;;;8.43;2.38;;;;;;;;;;2186881;27;20801;-74
2024/04/15 03:12:35;;;;;;;4.93;2.20;;;;;;;;;;2183985;27;20006;-72
2024/04/15 03:13:37;;;;;;;4.47;2.25;;;;;;;;;;2184855;26;20669;-73
2024/04/15 03:14:41;;;;;;;4.82;2.58;;;;;;;;;;2185614;27;20741;-73
2024/04/15 03:15:42;;;;;;;3.20;2.05;;;;;;;;;;2186478;26;20348;-73
2024/04/15 03:16:44;;;;;;;;;;;;;;;;;;2189207;26;20568;-72
2024/04/15 03:17:47;;;;;;;8.07;2.30;;;;;;;;;;2188217;27;20008;-72
2024/04/15 03:18:51;;;;;;;5.78;2.42;;;;;;;;;;2184274;27;20018;-73
2024/04/15 03:19:55;;;;;;;6.25;2.60;;;;;;;;;;2185035;27;20006;-73
2024/04/15 03:20:56;;;;;;;4.70;2.30;;;;;;;;;;2187194;27;20002;-72
2024/04/15 03:21:59;;;;;;;5.13;1.90;;;;;;;;;;2184976;26;20021;-72
2024/04/15 03:23:00;;;;;;;5.32;2.38;;;;;;;;;;2184355;27;20016;-73
2024/04/15 03:24:01;;;;;;;6.05;2.13;;;;;;;;;;2189209;26;20011;-73
2024/04/15 03:25:02;;;;;;;;;;;;;;;;;;2185716;26;20006;-73
2024/04/15 03:26:06;;;;;;;5.95;2.45;;;;;;;;;;2184599;27;20477;-72
2024/04/15 03:27:07;;;;;;;5.22;2.35;;;;;;;;;;2184525;27;20010;-72
2024/04/15 03:28:11;;;;;;;6.53;2.30;;;;;;;;;;2190430;27;20001;-72
2024/04/15 03:29:15;;;;;;;5.78;2.20;;;;;;;;;;2190290;26;20017;-72
2024/04/15 03:30:16;;;;;;;4.13;1.92;;;;;;;;;;2189307;26;20017;-72
2024/04/15 03:31:17;;;;;;;4.50;2.08;;;;;;;;;;2186924;26;20009;-72
2024/04/15 03:32:18;;;;;;;4.80;2.40;;;;;;;;;;2181972;26;20003;-72
2024/04/15 03:33:22;;;;;;;5.40;2.17;;;;;;;;;;2186845;26;20080;-71
2024/04/15 03:34:23;;;;;;;12.02;2.97;;;;;;;;;;2186934;26;20470;-71
2024/04/15 03:35:24;;;;;;;4.47;2.45;;;;;;;;;;2186134;26;20002;-71
2024/04/15 03:36:25;;;;;;;3.92;2.13;;;;;;;;;;2185498;26;20013;-71
2024/04/15 03:37:29;;;;;;;;;;;;;;;;;;2183038;26;20010;-72
2024/04/15 03:38:30;;;;;;;4.03;1.88;;;;;;;;;;2186564;27;19942;-72
2024/04/15 03:39:31;;;;;;;4.15;2.20;;;;;;;;;;2184244;27;20002;-71
2024/04/15 03:40:34;;;;;;;;;;;;;;;;;;2183564;26;20006;-71
2024/04/15 03:41:35;;;;;;;7.85;2.33;;;;;;;;;;2187751;27;20327;-71
2024/04/15 03:42:36;;;;;;;6.65;2.25;;;;;;;;;;2188020;26;20008;-71
2024/04/15 03:43:43;;;;;;;10.77;2.50;;;;;;;;;;2186060;26;20365;-72
2024/04/15 03:44:44;;;;;;;3.53;2.00;;;;;;;;;;2187346;27;20500;-72
2024/04/15 03:45:45;;;;;;;4.45;2.20;;;;;;;;;;2184469;26;20351;-72
2024/04/15 03:46:46;;;;;;;2.78;1.85;;;;;;;;;;2188206;27;20028;-72
2024/04/15 03:47:50;;;;;;;4.82;2.15;;;;;;;;;;2188783;26;20001;-72
2024/04/15 03:48:51;;;;;;;4.78;2.30;;;;;;;;;;2190561;27;20012;-71
2024/04/15 03:49:52;;;;;;;5.88;2.08;;;;;;;;;;2184399;27;20249;-72
2024/04/15 03:50:55;;;;;;;4.68;2.15;;;;;;;;;;2186271;26;20009;-72
2024/04/15 03:51:56;;;;;;;6.25;2.58;;;;;;;;;;2185275;27;20002;-72
2024/04/15 03:52:58;;;;;;;;;;;;;;;;;;2186615;26;20451;-72
2024/04/15 03:53:59;;;;;;;6.50;2.08;;;;;;;;;;2185633;27;19934;-72
2024/04/15 03:55:03;;;;;;;6.35;2.30;;;;;;;;;;2185161;26;20002;-72
2024/04/15 03:56:05;;;;;;;4.03;2.00;;;;;;;;;;2186876;27;20001;-72
2024/04/15 03:57:06;;;;;;;6.47;2.30;;;;;;;;;;2184625;26;20475;-72
2024/04/15 03:58:06;;;;;;;;;;;;;;;;;;2183206;27;20001;-72
2024/04/15 03:59:13;;;;;;;4.90;2.28;;;;;;;;;;2185658;27;19927;-72
2024/04/15 04:00:14;;;;;;;5.50;1.90;;;;;;;;;;2186463;27;20482;-72
2024/04/15 04:01:15;;;;;;;5.05;2.35;;;;;;;;;;2180873;27;20019;-72
2024/04/15 04:02:16;;;;;;;4.03;2.10;;;;;;;;;;2184856;27;20010;-72
2024/04/15 04:03:20;;;;;;;5.00;2.17;;;;;;;;;;2185525;26;20002;-72
2024/04/15 04:04:22;;;;;;;7.50;2.45;;;;;;;;;;2187227;26;20002;-72
2024/04/15 04:05:23;;;;;;;8.07;2.20;;;;;;;;;;2189556;27;20075;-72
2024/04/15 04:06:29;;;;;;;7.20;2.20;;;;;;;;;;2187261;27;20021;-72
2024/04/15 04:07:31;;;;;;;5.25;2.10;;;;;;;;;;2188197;26;20009;-72
2024/04/15 04:08:32;;;;;;;4.60;1.90;;;;;;;;;;2187742;26;20032;-72
2024/04/15 04:09:36;;;;;;;7.38;2.20;;;;;;;;;;2188705;26;20002;-72
2024/04/15 04:10:37;;;;;;;5.07;2.38;;;;;;;;;;2185372;26;20076;-72
2024/04/15 04:11:38;;;;;;;6.65;2.63;;;;;;;;;;2182614;26;20030;-72
2024/04/15 04:12:39;;;;;;;6.03;2.08;;;;;;;;;;2182303;27;20002;-73
2024/04/15 04:13:43;;;;;;;7.88;2.88;;;;;;;;;;2187552;26;20006;-72
2024/04/15 04:14:47;;;;;;;4.72;2.40;;;;;;;;;;2186302;27;20462;-72
2024/04/15 04:15:48;;;;;;;8.77;2.05;;;;;;;;;;2186522;26;20008;-73
2024/04/15 04:16:52;;;;;;;5.50;2.50;;;;;;;;;;2184420;27;20455;-73
2024/04/15 04:17:53;;;;;;;6.32;2.22;;;;;;;;;;2185360;27;20102;-72
2024/04/15 04:18:54;;;;;;;6.20;2.10;;;;;;;;;;2187004;26;20053;-72
2024/04/15 04:19:55;;;;;;;5.47;2.33;;;;;;;;;;2201408;26;20013;-72
2024/04/15 04:20:59;;;;;;;6.90;2.03;;;;;;;;;;2202474;26;20002;-72
2024/04/15 04:22:00;;;;;;;4.25;2.45;;;;;;;;;;2201755;26;20001;-72
2024/04/15 04:23:01;;;;;;;4.30;2.38;;;;;;;;;;2200270;26;20123;-72
2024/04/15 04:24:02;;;;;;;;;;;;;;;;;;2200641;26;20001;-72
2024/04/15 04:25:06;;;;;;;3.90;2.40;;;;;;;;;;2200247;26;19973;-72
2024/04/15 04:26:07;;;;;;;4.50;2.08;;;;;;;;;;2200227;26;20013;-72
2024/04/15 04:27:08;;;;;;;9.98;2.60;;;;;;;;;;2201949;26;20001;-72
2024/04/15 04:28:09;;;;;;;;;;;;;;;;;;2202461;26;20015;-72
2024/04/15 04:29:13;;;;;;;5.50;2.00;;;;;;;;;;2203341;26;20371;-72
2024/04/15 04:30:16;;;;;;;5.60;2.30;;;;;;;;;;2201027;26;20019;-72
2024/04/15 04:31:18;;;;;;;5.25;2.17;;;;;;;;;;2201957;26;20518;-73
2024/04/15 04:32:21;;;;;;;6.57;2.25;;;;;;;;;;2200422;26;20001;-72
2024/04/15 04:33:22;;;;;;;7.20;2.30;;;;;;;;;;2196232;26;20002;-72
2024/04/15 04:34:23;;;;;;;;;;;;;;;;;;2204589;26;20016;-72
2024/04/15 04:35:24;;;;;;;5.90;2.30;;;;;;;;;;2197473;26;19933;-72
2024/04/15 04:36:28;;;;;;;6.72;2.45;;;;;;;;;;2199704;26;20005;-72
2024/04/15 04:37:29;;;;;;;6.10;2.03;;;;;;;;;;2199305;26;19997;-72
2024/04/15 04:38:30;;;;;;;7.10;2.75;;;;;;;;;;2200641;26;20002;-72
2024/04/15 04:39:31;;;;;;;5.25;2.42;;;;;;;;;;2202551;26;20457;-72
2024/04/15 04:40:35;;;;;;;;;;;;;;;;;;2198995;26;20027;-72
2024/04/15 04:41:36;;;;;;;4.88;2.28;;;;;;;;;;2196013;26;19927;-72
2024/04/15 04:42:37;;;;;;;7.72;2.60;;;;;;;;;;2198466;26;20133;-72
2024/04/15 04:43:38;;;;;;;;;;;;;;;;;;2200627;26;20001;-72
2024/04/15 04:44:41;;;;;;;5.20;2.30;;;;;;;;;;2199923;26;20290;-72
2024/04/15 04:45:45;;;;;;;6.35;2.22;;;;;;;;;;2201169;26;20019;-72
2024/04/15 04:46:48;;;;;;;5.15;2.20;;;;;;;;;;2201935;26;20416;-72
2024/04/15 04:47:52;;;;;;;5.43;2.38;;;;;;;;;;2201508;26;20009;-72
2024/04/15 04:48:53;;;;;;;5.25;2.22;;;;;;;;;;2200539;26;20001;-75
2024/04/15 04:49:54;;;;;;;73.28;7.63;;;;;;;;;;2199540;26;20324;-72
2024/04/15 04:50:55;;;;;;;;;;;;;;;;;;2204279;26;20459;-72
2024/04/15 04:51:59;;;;;;;15.68;2.50;;;;;;;;;;2200022;26;19934;-72
2024/04/15 04:53:00;;;;;;;9.75;2.53;;;;;;;;;;2199656;26;20020;-72
2024/04/15 04:54:00;;;;;;;;;;;;;;;;;;2202392;26;20005;-71
2024/04/15 04:55:02;;;;;;;4.35;1.90;;;;;;;;;;2201517;26;19925;-72
2024/04/15 04:56:09;;;;;;;9.10;3.10;;;;;;;;;;2201177;26;20532;-72
2024/04/15 04:57:10;;;;;;;6.47;2.42;;;;;;;;;;2203671;26;20462;-72
2024/04/15 04:58:13;;;;;;;4.38;1.80;;;;;;;;;;2198686;26;20009;-72
2024/04/15 04:59:14;;;;;;;6.30;2.00;;;;;;;;;;2201495;26;20085;-72
2024/04/15 05:00:18;;;;;;;5.35;2.10;;;;;;;;;;2201270;26;20001;-72
2024/04/15 05:01:21;;;;;;;5.18;2.53;;;;;;;;;;2194110;26;20010;-71
2024/04/15 05:02:24;;;;;;;4.63;2.30;;;;;;;;;;2185490;27;20010;-71
2024/04/15 05:03:25;;;;;;;5.65;2.38;;;;;;;;;;2186340;26;20097;-72
2024/04/15 05:04:29;;;;;;;4.32;1.92;;;;;;;;;;2188223;26;20040;-72
2024/04/15 05:05:34;;;;;;;7.43;2.20;;;;;;;;;;2188060;26;20010;-72
2024/04/15 05:06:37;;;;;;;11.70;2.40;;;;;;;;;;2185723;27;20033;-71
2024/04/15 05:07:40;;;;;;;3.90;2.15;;;;;;;;;;2185194;26;20016;-72
2024/04/15 05:08:43;;;;;;;7.93;3.10;;;;;;;;;;2184645;26;20006;-72
2024/04/15 05:09:44;;;;;;;8.93;2.67;;;;;;;;;;2190198;26;20020;-71
2024/04/15 05:10:46;;;;;;;5.03;2.90;;;;;;;;;;2186863;26;20362;-71
2024/04/15 05:11:50;;;;;;;7.00;2.80;;;;;;;;;;2185112;27;20486;-71
2024/04/15 05:12:51;;;;;;;7.15;2.15;;;;;;;;;;2182491;27;20002;-71
2024/04/15 05:13:52;;;;;;;7.85;2.60;;;;;;;;;;2183658;26;20041;-71
2024/04/15 05:14:53;;;;;;;6.38;2.40;;;;;;;;;;2184635;27;20001;-71
2024/04/15 05:16:05;;;;;;;11.35;2.85;;;;;;;;;;2188722;26;20003;-70
2024/04/15 05:17:10;;;;;;;15.57;2.95;;;;;;;;;;2187668;27;20018;-72
2024/04/15 05:18:12;;;;;;;7.75;2.45;;;;;;;;;;2186062;27;20022;-71
2024/04/15 05:19:15;;;;;;;8.88;2.35;;;;;;;;;;2190573;26;20001;-72
2024/04/15 05:20:16;;;;;;;7.40;2.33;;;;;;;;;;2199467;26;20001;-73
2024/04/15 05:21:17;;;;;;;;;;;;;;;;;;2202761;26;20735;-71
2024/04/15 05:22:18;;;;;;;4.97;2.50;;;;;;;;;;2198455;26;19970;-70
2024/04/15 05:23:22;;;;;;;5.25;2.03;;;;;;;;;;2198065;26;20029;-71
2024/04/15 05:24:24;;;;;;;6.55;2.40;;;;;;;;;;2201197;26;20745;-71
2024/04/15 05:25:25;;;;;;;7.75;2.40;;;;;;;;;;2200628;26;20535;-72
2024/04/15 05:26:26;;;;;;;12.73;2.35;;;;;;;;;;2200242;26;20012;-72
2024/04/15 05:27:29;;;;;;;6.53;2.67;;;;;;;;;;2202792;26;20012;-72
2024/04/15 05:28:31;;;;;;;7.65;2.78;;;;;;;;;;2190747;26;21688;-72
2024/04/15 05:29:31;;;;;;;9.38;2.50;;;;;;;;;;2184780;26;20033;-71
2024/04/15 05:30:32;;;;;;;;;;;;;;;;;;2186684;26;20002;-71
2024/04/15 05:31:36;;;;;;;8.43;2.60;;;;;;;;;;2196256;26;19973;-71
2024/04/15 05:32:40;;;;;;;12.23;2.75;;;;;;;;;;2201541;26;20004;-71
2024/04/15 05:33:41;;;;;;;9.95;3.50;;;;;;;;;;2199611;26;20025;-72
2024/04/15 05:34:43;;;;;;;21.70;3.10;;;;;;;;;;2199944;26;19998;-72
2024/04/15 05:35:47;;;;;;;11.35;2.47;;;;;;;;;;2199022;26;20059;-71
2024/04/15 05:36:48;;;;;;;8.55;2.75;;;;;;;;;;2199370;26;20001;-73
2024/04/15 05:37:49;;;;;;;11.40;2.60;;;;;;;;;;2183336;26;20010;-71
2024/04/15 05:38:53;;;;;;;9.75;3.13;;;;;;;;;;2186698;27;20005;-72
2024/04/15 05:39:54;;;;;;;10.50;2.78;;;;;;;;;;2183839;27;20022;-70
2024/04/15 05:40:55;;;;;;;;;;;;;;;;;;2184521;27;20007;-72
2024/04/15 05:41:56;;;;;;;6.03;2.30;;;;;;;;;;2181293;27;20053;-72
2024/04/15 05:42:59;;;;;;;9.18;2.55;;;;;;;;;;2183669;26;20014;-71
2024/04/15 05:44:00;;;;;;;14.40;3.75;;;;;;;;;;2185637;27;20001;-72
2024/04/15 05:45:02;;;;;;;10.20;2.95;;;;;;;;;;2186034;27;20080;-72
2024/04/15 05:46:04;;;;;;;4.03;2.38;;;;;;;;;;2184591;27;19998;-71
2024/04/15 05:47:09;;;;;;;7.10;2.85;;;;;;;;;;2180796;27;20458;-74
2024/04/15 05:48:13;;;;;;;5.25;2.65;;;;;;;;;;2185154;27;20001;-72
2024/04/15 05:49:14;;;;;;;6.97;2.75;;;;;;;;;;2185119;26;20134;-72
2024/04/15 05:50:15;;;;;;;5.63;2.60;;;;;;;;;;2184977;26;20482;-72
2024/04/15 05:51:20;;;;;;;7.40;2.50;;;;;;;;;;2187322;27;20045;-72
2024/04/15 05:52:21;;;;;;;9.13;2.75;;;;;;;;;;2184072;27;20030;-71
2024/04/15 05:53:22;;;;;;;5.93;2.75;;;;;;;;;;2186722;27;20010;-72
2024/04/15 05:54:23;;;;;;;5.80;2.63;;;;;;;;;;2185368;26;20426;-71
2024/04/15 05:55:27;;;;;;;6.05;2.53;;;;;;;;;;2183915;26;20030;-71
2024/04/15 05:56:28;;;;;;;7.90;2.60;;;;;;;;;;2186227;27;20018;-72
2024/04/15 05:57:29;;;;;;;;;;;;;;;;;;2186345;26;20006;-71
2024/04/15 05:58:32;;;;;;;9.80;2.58;;;;;;;;;;2186706;26;19926;-72
2024/04/15 05:59:33;;;;;;;8.52;2.55;;;;;;;;;;2184710;27;20013;-71
2024/04/15 06:00:35;;;;;;;7.53;2.60;;;;;;;;;;2183332;27;20010;-71
2024/04/15 06:01:36;;;;;;;10.02;2.70;;;;;;;;;;2184611;26;20123;-71
2024/04/15 06:02:40;;;;;;;5.40;2.40;;;;;;;;;;2184047;26;20435;-71
2024/04/15 06:03:44;;;;;;;14.48;2.63;;;;;;;;;;2186969;26;20002;-71
2024/04/15 06:04:45;;;;;;;8.50;2.85;;;;;;;;;;2185416;26;20006;-71
2024/04/15 06:05:49;;;;;;;5.93;2.97;;;;;;;;;;2188133;26;20006;-74
2024/04/15 06:06:50;;;;;;;7.40;2.92;;;;;;;;;;2184660;27;20104;-71
2024/04/15 06:07:51;;;;;;;5.75;2.80;;;;;;;;;;2186626;26;20017;-71
2024/04/15 06:08:55;;;;;;;9.27;2.40;;;;;;;;;;2186177;26;20024;-72
2024/04/15 06:09:56;;;;;;;7.30;2.75;;;;;;;;;;2185514;26;20016;-72
2024/04/15 06:10:57;;;;;;;7.53;2.60;;;;;;;;;;2185467;26;20010;-72
2024/04/15 06:11:58;;;;;;;7.57;2.55;;;;;;;;;;2182993;26;20009;-74
2024/04/15 06:13:02;;;;;;;3.65;2.28;;;;;;;;;;2183922;26;20002;-72
2024/04/15 06:14:03;;;;;;;6.57;2.40;;;;;;;;;;2183147;26;19998;-72
2024/04/15 06:15:04;;;;;;;8.27;2.53;;;;;;;;;;2183363;26;20481;-73